createdAt,value
2018-05-11T00:01:41.026Z,95077.33
2018-05-11T00:04:08.538Z,95072.84
2018-05-11T00:06:36.043Z,95065.63
2018-05-11T00:09:03.553Z,95089.36
2018-05-11T00:11:31.047Z,95088.97
2018-05-11T00:13:58.564Z,95084.51
2018-05-11T00:16:26.096Z,95086.64
2018-05-11T00:18:53.677Z,95079.44
2018-05-11T00:21:21.180Z,95079.05
2018-05-11T00:23:48.674Z,95089.02
2018-05-11T00:26:16.191Z,95083.06
2018-05-11T00:28:43.722Z,95088.12
2018-05-11T00:31:11.258Z,95086.16
2018-05-11T00:33:38.755Z,95087.72
2018-05-11T00:36:06.295Z,95086.23
2018-05-11T00:38:33.810Z,95081.28
2018-05-11T00:41:01.352Z,95086.95
2018-05-11T00:43:28.851Z,95085.27
2018-05-11T00:45:56.439Z,95095.41
2018-05-11T00:48:23.956Z,95089.59
2018-05-11T00:50:51.466Z,95094.80
2018-05-11T00:53:19.013Z,95096.86
2018-05-11T00:55:49.474Z,95098.52
2018-05-11T00:58:17.038Z,95094.36
2018-05-11T01:00:44.578Z,95097.69
2018-05-11T01:03:12.088Z,95093.95
2018-05-11T01:05:39.582Z,95094.91
2018-05-11T01:08:07.084Z,95105.45
2018-05-11T01:10:34.599Z,95098.91
2018-05-11T01:13:02.107Z,95087.47
2018-05-11T01:15:29.613Z,95105.16
2018-05-11T01:17:57.107Z,95102.30
2018-05-11T01:20:24.643Z,95105.77
2018-05-11T01:22:52.201Z,95103.61
2018-05-11T01:25:19.750Z,95081.62
2018-05-11T01:27:47.284Z,95096.22
2018-05-11T01:30:14.823Z,95095.07
2018-05-11T01:32:42.324Z,95091.46
2018-05-11T01:35:09.864Z,95099.70
2018-05-11T01:37:37.407Z,95091.97
2018-05-11T01:40:04.912Z,95081.72
2018-05-11T01:42:32.466Z,95083.23
2018-05-11T01:44:59.965Z,95077.55
2018-05-11T01:47:27.470Z,95083.14
2018-05-11T01:49:54.967Z,95081.59
2018-05-11T01:52:22.507Z,95090.80
2018-05-11T01:54:50.008Z,95085.05
2018-05-11T01:57:17.552Z,95089.22
2018-05-11T01:59:45.051Z,95088.74
2018-05-11T02:02:12.555Z,95097.49
2018-05-11T02:04:40.092Z,95100.91
2018-05-11T02:07:07.603Z,95100.57
2018-05-11T02:09:35.139Z,95097.59
2018-05-11T02:12:02.635Z,95090.83
2018-05-11T02:14:30.194Z,95091.95
2018-05-11T02:16:57.740Z,95086.77
2018-05-11T02:19:25.236Z,95097.01
2018-05-11T02:21:52.731Z,95098.91
2018-05-11T02:24:20.237Z,95103.48
2018-05-11T02:26:47.775Z,95084.59
2018-05-11T02:29:15.280Z,95109.16
2018-05-11T02:31:42.789Z,95106.75
2018-05-11T02:34:10.362Z,95113.79
2018-05-11T02:36:37.861Z,95121.34
2018-05-11T02:39:05.378Z,95121.03
2018-05-11T02:41:32.885Z,95118.28
2018-05-11T02:44:00.440Z,95121.14
2018-05-11T02:46:27.949Z,95128.52
2018-05-11T02:48:55.451Z,95126.54
2018-05-11T02:51:22.951Z,95122.36
2018-05-11T02:53:50.465Z,95125.07
2018-05-11T02:56:17.969Z,95124.38
2018-05-11T02:58:45.479Z,95130.20
2018-05-11T03:01:12.983Z,95130.75
2018-05-11T03:03:40.488Z,95131.51
2018-05-11T03:06:08.000Z,95128.13
2018-05-11T03:08:35.519Z,95140.88
2018-05-11T03:11:03.026Z,95142.22
2018-05-11T03:13:30.535Z,95133.92
2018-05-11T03:15:58.051Z,95145.12
2018-05-11T03:18:25.651Z,95149.98
2018-05-11T03:20:53.127Z,95144.33
2018-05-11T03:23:20.628Z,95152.08
2018-05-11T03:25:48.130Z,95160.25
2018-05-11T03:28:15.687Z,95159.19
2018-05-11T03:30:43.220Z,95170.22
2018-05-11T03:33:10.722Z,95172.00
2018-05-11T03:35:38.274Z,95177.60
2018-05-11T03:38:05.778Z,95171.52
2018-05-11T03:40:33.287Z,95180.00
2018-05-11T03:43:00.796Z,95180.70
2018-05-11T03:45:28.298Z,95186.22
2018-05-11T03:47:55.908Z,95193.28
2018-05-11T03:50:23.362Z,95194.39
2018-05-11T03:52:50.872Z,95198.80
2018-05-11T03:55:18.389Z,95200.92
2018-05-11T03:57:45.890Z,95207.39
2018-05-11T04:00:13.442Z,95207.22
2018-05-11T04:02:52.775Z,95211.78
2018-05-11T04:05:32.161Z,95209.16
2018-05-11T04:08:12.820Z,95209.16
2018-05-11T04:10:40.319Z,95204.22
2018-05-11T04:13:07.866Z,95214.55
2018-05-11T04:15:35.339Z,95219.52
2018-05-11T04:18:02.900Z,95240.69
2018-05-11T04:20:31.185Z,95228.27
2018-05-11T04:24:52.023Z,95220.88
2018-05-11T04:27:19.525Z,95220.03
2018-05-11T04:29:47.040Z,95220.59
2018-05-11T04:32:14.555Z,95218.42
2018-05-11T04:34:42.055Z,95226.90
2018-05-11T04:37:09.652Z,95226.00
2018-05-11T04:39:37.091Z,95227.80
2018-05-11T04:42:04.591Z,95235.73
2018-05-11T04:44:32.143Z,95232.91
2018-05-11T04:46:59.659Z,95245.88
2018-05-11T04:49:27.172Z,95249.58
2018-05-11T04:51:54.715Z,95238.74
2018-05-11T04:54:22.231Z,95241.81
2018-05-11T04:56:49.739Z,95257.00
2018-05-11T04:59:17.250Z,95248.06
2018-05-11T05:01:44.810Z,95256.55
2018-05-11T05:04:12.344Z,95254.83
2018-05-11T05:06:39.885Z,95266.23
2018-05-11T05:09:07.390Z,95262.27
2018-05-11T05:11:34.897Z,95261.83
2018-05-11T05:14:02.412Z,95255.94
2018-05-11T05:16:30.082Z,95262.05
2018-05-11T05:18:57.591Z,95261.98
2018-05-11T05:21:25.153Z,95265.66
2018-05-11T05:23:52.659Z,95264.19
2018-05-11T05:26:21.141Z,95272.03
2018-05-11T05:28:48.658Z,95266.41
2018-05-11T05:31:16.238Z,95276.56
2018-05-11T05:33:43.735Z,95262.44
2018-05-11T05:36:11.337Z,95253.19
2018-05-11T05:38:39.087Z,95258.16
2018-05-11T05:41:06.613Z,95260.58
2018-05-11T05:43:34.168Z,95259.38
2018-05-11T05:46:01.678Z,95263.61
2018-05-11T05:48:29.253Z,95265.27
2018-05-11T05:50:56.767Z,95275.23
2018-05-11T05:53:24.291Z,95270.56
2018-05-11T05:55:51.830Z,95265.90
2018-05-11T05:58:19.357Z,95273.41
2018-05-11T06:00:46.878Z,95286.41
2018-05-11T06:03:14.372Z,95274.83
2018-05-11T06:05:41.917Z,95273.39
2018-05-11T06:08:09.488Z,95273.30
2018-05-11T06:10:36.999Z,95286.28
2018-05-11T06:13:04.496Z,95282.16
2018-05-11T06:15:32.013Z,95286.81
2018-05-11T06:17:59.536Z,95280.84
2018-05-11T06:20:27.115Z,95285.91
2018-05-11T06:22:54.627Z,95303.58
2018-05-11T06:25:22.151Z,95298.19
2018-05-11T06:27:49.663Z,95307.72
2018-05-11T06:30:17.215Z,95304.53
2018-05-11T06:32:44.724Z,95301.36
2018-05-11T06:35:12.261Z,95315.32
2018-05-11T06:37:39.771Z,95318.79
2018-05-11T06:40:07.365Z,95320.70
2018-05-11T06:42:34.872Z,95311.33
2018-05-11T06:45:02.380Z,95315.64
2018-05-11T06:47:29.915Z,95314.09
2018-05-11T06:49:57.419Z,95299.73
2018-05-11T06:52:24.931Z,95308.26
2018-05-11T06:54:52.486Z,95311.70
2018-05-11T06:57:19.988Z,95307.20
2018-05-11T06:59:47.496Z,95316.86
2018-05-11T07:02:15.033Z,95276.64
2018-05-11T07:04:42.535Z,95328.31
2018-05-11T07:07:10.063Z,95330.25
2018-05-11T07:09:37.564Z,95333.91
2018-05-11T07:12:05.398Z,95333.61
2018-05-11T07:14:32.921Z,95337.64
2018-05-11T07:17:00.585Z,95341.73
2018-05-11T07:19:28.179Z,95333.60
2018-05-11T07:21:55.678Z,95335.63
2018-05-11T07:24:23.170Z,95343.09
2018-05-11T07:26:50.671Z,95342.27
2018-05-11T07:29:18.281Z,95323.46
2018-05-11T07:31:45.796Z,95349.80
2018-05-11T07:34:13.296Z,95352.71
2018-05-11T07:36:40.790Z,95353.85
2018-05-11T07:39:08.452Z,95358.11
2018-05-11T07:41:35.974Z,95361.53
2018-05-11T07:44:03.536Z,95338.21
2018-05-11T07:46:31.050Z,95351.20
2018-05-11T07:48:58.585Z,95359.31
2018-05-11T07:51:26.088Z,95360.96
2018-05-11T07:53:53.593Z,95358.47
2018-05-11T07:56:21.101Z,95371.38
2018-05-11T07:58:48.749Z,95370.41
2018-05-11T08:01:16.250Z,95372.73
2018-05-11T08:03:43.753Z,95375.09
2018-05-11T08:06:11.250Z,95384.23
2018-05-11T08:08:38.762Z,95377.95
2018-05-11T08:11:06.275Z,95379.89
2018-05-11T08:13:33.774Z,95342.12
2018-05-11T08:16:01.275Z,95280.94
2018-05-11T08:18:28.775Z,95373.11
2018-05-11T08:20:56.333Z,95345.05
2018-05-11T08:23:23.831Z,95369.52
2018-05-11T08:25:51.346Z,95362.91
2018-05-11T08:28:18.846Z,95370.17
2018-05-11T08:30:46.365Z,95366.63
2018-05-11T08:33:13.883Z,95370.68
2018-05-11T08:35:41.417Z,95363.77
2018-05-11T08:38:08.917Z,95364.44
2018-05-11T08:40:36.452Z,95359.67
2018-05-11T08:43:03.973Z,95365.66
2018-05-11T08:45:31.488Z,95356.84
2018-05-11T08:47:59.039Z,95344.61
2018-05-11T08:50:26.516Z,95354.28
2018-05-11T08:52:54.024Z,95349.61
2018-05-11T08:55:21.531Z,95336.02
2018-05-11T08:57:49.129Z,95358.72
2018-05-11T09:00:18.082Z,95355.05
2018-05-11T09:02:45.606Z,95353.39
2018-05-11T09:05:13.128Z,95355.19
2018-05-11T09:07:40.643Z,95352.74
2018-05-11T09:10:08.170Z,95350.92
2018-05-11T09:12:35.711Z,95355.19
2018-05-11T09:15:03.299Z,95350.98
2018-05-11T09:17:30.835Z,95352.72
2018-05-11T09:19:58.489Z,95346.47
2018-05-11T09:22:25.995Z,95351.49
2018-05-11T09:24:53.509Z,95353.17
2018-05-11T09:27:21.031Z,95346.82
2018-05-11T09:29:48.527Z,95361.48
2018-05-11T09:32:16.044Z,95353.77
2018-05-11T09:34:43.551Z,95361.06
2018-05-11T09:37:11.185Z,95357.89
2018-05-11T09:39:38.738Z,95351.87
2018-05-11T09:42:06.224Z,95357.64
2018-05-11T09:44:33.731Z,95362.70
2018-05-11T09:47:01.648Z,95356.73
2018-05-11T09:49:29.174Z,95374.48
2018-05-11T09:51:56.679Z,95349.09
2018-05-11T09:54:24.189Z,95361.66
2018-05-11T09:56:51.699Z,95350.89
2018-05-11T09:59:19.216Z,95360.63
2018-05-11T10:01:46.769Z,95354.56
2018-05-11T10:04:14.291Z,95351.23
2018-05-11T10:06:41.819Z,95352.09
2018-05-11T10:09:09.332Z,95358.14
2018-05-11T10:11:36.855Z,95353.64
2018-05-11T10:14:04.368Z,95356.36
2018-05-11T10:16:31.919Z,95354.13
2018-05-11T10:18:59.432Z,95354.08
2018-05-11T10:21:26.975Z,95360.13
2018-05-11T10:23:54.488Z,95364.39
2018-05-11T10:26:21.996Z,95354.33
2018-05-11T10:28:49.565Z,95352.28
2018-05-11T10:31:17.105Z,95358.67
2018-05-11T10:33:44.640Z,95349.01
2018-05-11T10:36:12.162Z,95359.95
2018-05-11T10:38:39.660Z,95343.83
2018-05-11T10:41:07.520Z,95349.40
2018-05-11T10:43:35.029Z,95349.55
2018-05-11T10:46:02.572Z,95348.48
2018-05-11T10:48:30.134Z,95342.00
2018-05-11T10:50:57.642Z,95346.17
2018-05-11T10:53:25.146Z,95353.96
2018-05-11T10:55:52.665Z,95345.91
2018-05-11T10:58:20.850Z,95331.67
2018-05-11T11:00:48.365Z,95339.55
2018-05-11T11:03:15.931Z,95335.52
2018-05-11T11:05:43.440Z,95331.48
2018-05-11T11:08:10.940Z,95334.16
2018-05-11T11:10:38.476Z,95320.69
2018-05-11T11:13:05.973Z,95308.61
2018-05-11T11:15:33.571Z,95309.88
2018-05-11T11:18:01.121Z,95320.22
2018-05-11T11:20:28.619Z,95320.62
2018-05-11T11:22:56.124Z,95311.34
2018-05-11T11:25:23.640Z,95310.75
2018-05-11T11:27:51.252Z,95312.98
2018-05-11T11:30:18.743Z,95305.28
2018-05-11T11:32:46.255Z,95298.78
2018-05-11T11:35:13.807Z,95306.06
2018-05-11T11:37:41.328Z,95304.98
2018-05-11T11:40:08.831Z,95303.19
2018-05-11T11:42:36.520Z,95298.61
2018-05-11T11:45:04.011Z,95301.02
2018-05-11T11:47:31.538Z,95300.34
2018-05-11T11:49:59.100Z,95298.69
2018-05-11T11:52:26.600Z,95283.52
2018-05-11T11:54:54.100Z,95288.86
2018-05-11T11:57:21.609Z,95291.97
2018-05-11T11:59:49.126Z,95303.25
2018-05-11T12:02:16.627Z,95320.66
2018-05-11T12:04:44.151Z,95314.02
2018-05-11T12:07:11.743Z,95330.45
2018-05-11T12:09:39.261Z,95327.84
2018-05-11T12:12:06.819Z,95332.95
2018-05-11T12:14:34.575Z,95340.28
2018-05-11T12:17:02.087Z,95349.05
2018-05-11T12:19:29.683Z,95348.15
2018-05-11T12:21:57.209Z,95357.20
2018-05-11T12:24:24.732Z,95358.05
2018-05-11T12:26:52.363Z,95372.42
2018-05-11T12:29:19.869Z,95376.13
2018-05-11T12:31:47.439Z,95394.51
2018-05-11T12:34:14.937Z,95397.53
2018-05-11T12:36:42.440Z,95407.42
2018-05-11T12:39:10.085Z,95411.70
2018-05-11T12:41:37.590Z,95414.77
2018-05-11T12:44:05.123Z,95406.84
2018-05-11T12:46:32.662Z,95399.84
2018-05-11T12:49:00.208Z,95388.80
2018-05-11T12:51:28.028Z,95371.58
2018-05-11T12:53:55.563Z,95375.83
2018-05-11T12:56:23.101Z,95375.29
2018-05-11T12:58:50.608Z,95383.86
2018-05-11T13:01:18.095Z,95395.23
2018-05-11T13:03:45.741Z,95400.70
2018-05-11T13:06:14.052Z,95410.63
2018-05-11T13:08:41.645Z,95411.58
2018-05-11T13:11:09.191Z,95415.35
2018-05-11T13:13:36.694Z,95421.42
2018-05-11T13:16:04.221Z,95433.11
2018-05-11T13:18:31.791Z,95427.11
2018-05-11T13:20:59.336Z,95405.43
2018-05-11T13:23:26.911Z,95433.66
2018-05-11T13:25:54.426Z,95436.72
2018-05-11T13:28:21.928Z,95431.38
2018-05-11T13:30:49.499Z,95427.08
2018-05-11T13:33:17.003Z,95412.53
2018-05-11T13:35:44.569Z,95407.09
2018-05-11T13:38:12.080Z,95398.18
2018-05-11T13:40:39.725Z,95395.66
2018-05-11T13:43:07.271Z,95399.18
2018-05-11T13:45:34.864Z,95391.45
2018-05-11T13:48:02.366Z,95380.52
2018-05-11T13:50:29.868Z,95375.53
2018-05-11T13:52:57.411Z,95384.11
2018-05-11T13:55:24.919Z,95383.61
2018-05-11T13:57:52.453Z,95397.59
2018-05-11T14:00:19.963Z,95384.81
2018-05-11T14:02:47.474Z,95390.72
2018-05-11T14:05:14.985Z,95403.41
2018-05-11T14:07:42.500Z,95410.48
2018-05-11T14:10:10.045Z,95402.79
2018-05-11T14:12:37.586Z,95404.42
2018-05-11T14:15:05.164Z,95408.17
2018-05-11T14:17:32.693Z,95408.16
2018-05-11T14:20:00.206Z,95403.75
2018-05-11T14:22:27.743Z,95415.63
2018-05-11T14:24:55.259Z,95403.58
2018-05-11T14:27:22.783Z,95420.11
2018-05-11T14:29:50.300Z,95409.44
2018-05-11T14:32:17.803Z,95412.25
2018-05-11T14:34:45.321Z,95401.89
2018-05-11T14:37:12.832Z,95415.52
2018-05-11T14:39:40.343Z,95410.08
2018-05-11T14:42:07.884Z,95413.69
2018-05-11T14:44:35.387Z,95416.52
2018-05-11T14:47:02.998Z,95413.72
2018-05-11T14:49:30.545Z,95399.77
2018-05-11T14:51:58.111Z,95418.30
2018-05-11T14:54:25.635Z,95414.97
2018-05-11T14:56:53.175Z,95406.85
2018-05-11T14:59:20.687Z,95414.59
2018-05-11T15:01:48.521Z,95410.73
2018-05-11T15:04:16.191Z,95408.80
2018-05-11T15:06:43.869Z,95407.85
2018-05-11T15:09:11.444Z,95410.90
2018-05-11T15:11:38.983Z,95402.44
2018-05-11T15:14:06.505Z,95404.69
2018-05-11T15:16:34.046Z,95410.29
2018-05-11T15:19:01.784Z,95392.28
2018-05-11T15:21:29.363Z,95400.38
2018-05-11T15:23:56.984Z,95405.66
2018-05-11T15:26:24.810Z,95398.49
2018-05-11T15:28:52.556Z,95398.67
2018-05-11T15:31:20.130Z,95404.94
2018-05-11T15:33:47.817Z,95395.47
2018-05-11T15:36:15.777Z,95394.72
2018-05-11T15:38:43.349Z,95401.77
2018-05-11T15:41:10.859Z,95405.63
2018-05-11T15:43:38.388Z,95407.21
2018-05-11T15:46:05.952Z,95406.70
2018-05-11T15:48:33.451Z,95408.34
2018-05-11T15:51:00.952Z,95401.56
2018-05-11T15:53:28.514Z,95411.31
2018-05-11T15:55:56.065Z,95412.47
2018-05-11T15:58:23.622Z,95409.84
2018-05-11T16:00:51.165Z,95415.88
2018-05-11T16:03:18.689Z,95412.66
2018-05-11T16:05:46.220Z,95411.51
2018-05-11T16:08:13.740Z,95417.59
2018-05-11T16:10:41.914Z,95410.36
2018-05-11T16:13:09.420Z,95422.97
2018-05-11T16:15:36.985Z,95413.27
2018-05-11T16:18:04.500Z,95409.98
2018-05-11T16:20:32.083Z,95401.41
2018-05-11T16:22:59.596Z,95407.28
2018-05-11T16:25:27.138Z,95408.22
2018-05-11T16:27:54.703Z,95391.28
2018-05-11T16:30:22.278Z,95414.69
2018-05-11T16:32:49.795Z,95413.19
2018-05-11T16:35:17.300Z,95413.46
2018-05-11T16:37:44.838Z,95413.01
2018-05-11T16:40:12.351Z,95415.63
2018-05-11T16:42:39.905Z,95410.56
2018-05-11T16:45:07.467Z,95414.58
2018-05-11T16:47:34.975Z,95416.06
2018-05-11T16:50:02.555Z,95416.09
2018-05-11T16:52:30.130Z,95421.20
2018-05-11T16:54:57.643Z,95416.34
2018-05-11T16:57:25.145Z,95415.97
2018-05-11T16:59:52.648Z,95403.86
2018-05-11T17:02:20.152Z,95402.10
2018-05-11T17:04:47.694Z,95400.92
2018-05-11T17:07:15.511Z,95402.52
2018-05-11T17:09:43.038Z,95396.05
2018-05-11T17:12:10.806Z,95395.66
2018-05-11T17:14:38.332Z,95401.70
2018-05-11T17:17:05.895Z,95392.59
2018-05-11T17:19:33.406Z,95383.86
2018-05-11T17:22:00.932Z,95388.06
2018-05-11T17:24:28.448Z,95379.42
2018-05-11T17:26:56.007Z,95397.23
2018-05-11T17:29:23.560Z,95398.95
2018-05-11T17:31:51.088Z,95399.65
2018-05-11T17:34:18.653Z,95400.92
2018-05-11T17:36:47.356Z,95406.95
2018-05-11T17:39:14.899Z,95405.63
2018-05-11T17:41:42.414Z,95409.61
2018-05-11T17:44:09.980Z,95410.24
2018-05-11T17:46:37.853Z,95415.68
2018-05-11T17:49:05.431Z,95419.89
2018-05-11T17:51:32.955Z,95386.92
2018-05-11T17:54:00.519Z,95427.73
2018-05-11T17:56:28.091Z,95426.61
2018-05-11T17:58:55.634Z,95429.63
2018-05-11T18:01:23.240Z,95428.56
2018-05-11T18:03:50.773Z,95429.73
2018-05-11T18:06:18.606Z,95431.04
2018-05-11T18:08:46.345Z,95433.95
2018-05-11T18:11:13.897Z,95440.38
2018-05-11T18:13:41.579Z,95433.89
2018-05-11T18:16:09.100Z,95438.83
2018-05-11T18:18:36.612Z,95441.41
2018-05-11T18:21:04.797Z,95442.20
2018-05-11T18:23:32.334Z,95441.07
2018-05-11T18:25:59.870Z,95444.59
2018-05-11T18:28:27.394Z,95444.59
2018-05-11T18:30:55.282Z,95447.66
2018-05-11T18:33:22.841Z,95445.67
2018-05-11T18:35:50.419Z,95454.64
2018-05-11T18:38:17.976Z,95459.42
2018-05-11T18:40:45.600Z,95459.91
2018-05-11T18:43:13.121Z,95458.65
2018-05-11T18:45:40.668Z,95462.62
2018-05-11T18:48:08.194Z,95447.71
2018-05-11T18:50:35.776Z,95467.46
2018-05-11T18:53:03.708Z,95475.51
2018-05-11T18:55:31.366Z,95481.37
2018-05-11T18:57:59.311Z,95467.86
2018-05-11T19:00:27.164Z,95482.35
2018-05-11T19:02:55.442Z,95492.36
2018-05-11T19:05:23.020Z,95500.17
2018-05-11T19:07:50.992Z,95505.23
2018-05-11T19:10:18.552Z,95506.42
2018-05-11T19:12:46.096Z,95503.69
2018-05-11T19:15:13.653Z,95499.78
2018-05-11T19:17:41.364Z,95501.08
2018-05-11T19:20:10.805Z,95505.03
2018-05-11T19:22:38.372Z,95498.28
2018-05-11T19:25:06.493Z,95495.96
2018-05-11T19:27:34.955Z,95492.75
2018-05-11T19:30:04.055Z,95494.98
2018-05-11T19:32:31.627Z,95504.44
2018-05-11T19:35:00.032Z,95496.30
2018-05-11T19:37:27.607Z,95503.92
2018-05-11T19:39:56.112Z,95505.59
2018-05-11T19:42:23.767Z,95511.55
2018-05-11T19:44:52.292Z,95506.86
2018-05-11T19:47:19.893Z,95483.52
2018-05-11T19:49:47.440Z,95501.59
2018-05-11T19:52:14.963Z,95495.32
2018-05-11T19:54:42.547Z,95486.77
2018-05-11T19:57:10.068Z,95499.57
2018-05-11T19:59:38.204Z,95496.98
2018-05-11T20:02:05.774Z,95505.41
2018-05-11T20:04:33.280Z,95501.17
2018-05-11T20:07:00.797Z,95510.91
2018-05-11T20:09:28.306Z,95504.00
2018-05-11T20:11:55.832Z,95503.68
2018-05-11T20:14:24.070Z,95505.26
2018-05-11T20:16:51.581Z,95507.34
2018-05-11T20:19:19.208Z,95497.22
2018-05-11T20:21:46.780Z,95493.68
2018-05-11T20:24:14.293Z,95498.47
2018-05-11T20:26:41.887Z,95492.21
2018-05-11T20:29:09.451Z,95502.65
2018-05-11T20:31:37.063Z,95509.38
2018-05-11T20:34:04.577Z,95514.20
2018-05-11T20:36:32.083Z,95508.25
2018-05-11T20:38:59.898Z,95515.34
2018-05-11T20:41:27.481Z,95509.38
2018-05-11T20:43:54.956Z,95510.07
2018-05-11T20:46:22.483Z,95512.43
2018-05-11T20:48:50.001Z,95502.41
2018-05-11T20:51:17.752Z,95501.29
2018-05-11T20:53:45.344Z,95497.20
2018-05-11T20:56:13.160Z,95501.70
2018-05-11T20:58:40.678Z,95503.76
2018-05-11T21:01:08.241Z,95510.30
2018-05-11T21:03:35.999Z,95518.00
2018-05-11T21:06:03.629Z,95519.45
2018-05-11T21:08:31.139Z,95516.03
2018-05-11T21:10:58.707Z,95524.19
2018-05-11T21:13:26.216Z,95514.88
2018-05-11T21:15:53.726Z,95517.23
2018-05-11T21:18:21.231Z,95519.18
2018-05-11T21:20:48.766Z,95524.77
2018-05-11T21:23:16.275Z,95522.84
2018-05-11T21:25:43.813Z,95529.70
2018-05-11T21:28:11.328Z,95527.09
2018-05-11T21:30:38.919Z,95538.73
2018-05-11T21:33:06.424Z,95534.19
2018-05-11T21:35:33.923Z,95533.44
2018-05-11T21:38:01.524Z,95533.44
2018-05-11T21:40:29.075Z,95525.50
2018-05-11T21:42:56.808Z,95530.66
2018-05-11T21:45:24.303Z,95533.34
2018-05-11T21:47:51.815Z,95534.57
2018-05-11T21:50:19.321Z,95541.99
2018-05-11T21:52:46.840Z,95535.42
2018-05-11T21:55:14.404Z,95537.82
2018-05-11T21:57:41.951Z,95544.04
2018-05-11T22:00:09.511Z,95546.07
2018-05-11T22:02:37.027Z,95541.80
2018-05-11T22:05:04.574Z,95541.75
2018-05-11T22:07:32.131Z,95539.97
2018-05-11T22:09:59.954Z,95536.13
2018-05-11T22:12:27.458Z,95532.48
2018-05-11T22:14:55.255Z,95522.25
2018-05-11T22:17:22.770Z,95534.78
2018-05-11T22:19:50.574Z,95531.40
2018-05-11T22:22:18.115Z,95537.27
2018-05-11T22:24:45.697Z,95527.63
2018-05-11T22:27:13.149Z,95526.76
2018-05-11T22:29:40.812Z,95534.41
2018-05-11T22:32:08.328Z,95542.08
2018-05-11T22:34:35.832Z,95542.95
2018-05-11T22:37:03.331Z,95538.11
2018-05-11T22:39:30.880Z,95543.23
2018-05-11T22:41:58.386Z,95536.46
2018-05-11T22:44:25.938Z,95536.28
2018-05-11T22:46:53.434Z,95532.67
2018-05-11T22:49:20.981Z,95528.55
2018-05-11T22:51:48.494Z,95524.23
2018-05-11T22:54:16.022Z,95526.81
2018-05-11T22:56:43.533Z,95533.55
2018-05-11T22:59:11.038Z,95516.09
2018-05-11T23:01:38.547Z,95523.15
2018-05-11T23:04:06.110Z,95522.95
2018-05-11T23:06:33.603Z,95537.80
2018-05-11T23:09:01.115Z,95519.17
2018-05-11T23:11:28.612Z,95522.59
2018-05-11T23:13:56.120Z,95519.50
2018-05-11T23:16:23.620Z,95516.70
2018-05-11T23:18:51.131Z,95525.00
2018-05-11T23:21:18.639Z,95527.86
2018-05-11T23:23:46.147Z,95535.23
2018-05-11T23:26:13.672Z,95530.30
2018-05-11T23:28:41.176Z,95519.48
2018-05-11T23:31:08.678Z,95525.83
2018-05-11T23:33:36.187Z,95521.60
2018-05-11T23:36:03.706Z,95530.51
2018-05-11T23:38:31.202Z,95533.08
2018-05-11T23:40:58.713Z,95539.28
2018-05-11T23:43:26.243Z,95528.75
2018-05-11T23:45:53.767Z,95536.51
2018-05-11T23:48:21.366Z,95543.55
2018-05-11T23:50:48.911Z,95545.61
2018-05-11T23:53:16.429Z,95541.94
2018-05-11T23:55:43.964Z,95538.12
2018-05-11T23:58:11.482Z,95538.48
